Pilot Hill, California
Current Conditions -  °F | °C
As of 4:15 PM on Saturday 22 Nov 2014 (Local Time) from KAUN Reporting Station
Overcast Overcast  
Wind Chill: 54°   Ceiling: 2200
Heat Index: 54°   Visibility: 4mi
Dew Point: 54°   Wind: 3mph
Humidity: 100%   Direction: 270°W
Pressure: 30.15"   Gusts: NA
Location:  38.83°N, 121.02°W
Report Text: KAUN 230015Z AUTO 27003KT 4SM FEW010 BKN022 OVC110 12/12 A3015 RMK AO1
Loading
Personal Weather Stations






























Interactive Weather Map New forecast layout! Learn more

10-Day Weather Forecast

Advertisements
Track Severe Weather on mobile